createdAt,value
2023-07-18T00:00:20.034Z,25.66
2023-07-18T00:01:51.729Z,25.61
2023-07-18T00:03:23.512Z,25.59
2023-07-18T00:04:55.836Z,25.55
2023-07-18T00:06:27.455Z,25.53
2023-07-18T00:07:59.391Z,25.51
2023-07-18T00:09:31.389Z,25.53
2023-07-18T00:11:03.179Z,25.51
2023-07-18T00:12:35.217Z,25.48
2023-07-18T00:14:06.912Z,25.45
2023-07-18T00:15:39.236Z,25.40
2023-07-18T00:17:10.862Z,25.36
2023-07-18T00:18:42.442Z,25.36
2023-07-18T00:20:18.667Z,25.30
2023-07-18T00:21:50.403Z,25.22
2023-07-18T00:23:22.252Z,25.19
2023-07-18T00:24:54.103Z,25.16
2023-07-18T00:26:25.880Z,25.12
2023-07-18T00:27:57.684Z,25.12
2023-07-18T00:29:29.573Z,25.09
2023-07-18T00:31:01.659Z,25.04
2023-07-18T00:32:34.331Z,25.02
2023-07-18T00:34:07.285Z,25.04
2023-07-18T00:35:39.030Z,25.05
2023-07-18T00:37:10.785Z,25.03
2023-07-18T00:38:43.196Z,24.96
2023-07-18T00:40:17.975Z,24.92
2023-07-18T00:41:51.719Z,24.87
2023-07-18T00:43:23.979Z,24.81
2023-07-18T00:44:55.833Z,24.75
2023-07-18T00:46:28.104Z,24.70
2023-07-18T00:47:59.964Z,24.68
2023-07-18T00:49:31.877Z,24.64
2023-07-18T00:51:05.834Z,24.65
2023-07-18T00:52:38.439Z,24.57
2023-07-18T00:54:10.700Z,24.52
2023-07-18T00:55:42.387Z,24.49
2023-07-18T00:57:14.007Z,24.42
2023-07-18T00:58:46.018Z,24.42
2023-07-18T01:00:18.869Z,24.45
2023-07-18T01:01:50.744Z,24.47
2023-07-18T01:03:23.039Z,24.48
2023-07-18T01:04:55.007Z,24.41
2023-07-18T01:06:26.643Z,24.43
2023-07-18T01:07:58.310Z,24.43
2023-07-18T01:09:30.826Z,24.42
2023-07-18T01:11:02.779Z,24.44
2023-07-18T01:12:34.415Z,24.40
2023-07-18T01:14:07.142Z,24.42
2023-07-18T01:15:39.343Z,24.42
2023-07-18T01:17:12.969Z,24.42
2023-07-18T01:18:44.595Z,24.43
2023-07-18T01:20:18.298Z,24.41
2023-07-18T01:21:50.166Z,24.35
2023-07-18T01:23:22.798Z,24.32
2023-07-18T01:24:54.575Z,24.31
2023-07-18T01:26:26.377Z,24.15
2023-07-18T01:27:58.314Z,24.05
2023-07-18T01:29:31.655Z,24.00
2023-07-18T01:31:03.417Z,23.94
2023-07-18T01:32:37.681Z,23.90
2023-07-18T01:34:10.143Z,23.84
2023-07-18T01:35:42.743Z,23.79
2023-07-18T01:37:16.529Z,23.77
2023-07-18T01:38:48.721Z,23.72
2023-07-18T01:40:21.788Z,23.73
2023-07-18T01:41:53.774Z,23.73
2023-07-18T01:43:25.457Z,23.68
2023-07-18T01:44:57.507Z,23.67
2023-07-18T01:46:31.604Z,23.66
2023-07-18T01:48:04.428Z,23.67
2023-07-18T01:49:36.775Z,23.64
2023-07-18T01:51:08.315Z,23.64
2023-07-18T01:52:40.153Z,23.64
2023-07-18T01:54:12.499Z,23.62
2023-07-18T01:55:44.843Z,23.58
2023-07-18T01:57:16.825Z,23.48
2023-07-18T01:58:48.518Z,23.43
2023-07-18T02:00:21.690Z,23.43
2023-07-18T02:01:54.135Z,23.38
2023-07-18T02:03:25.901Z,23.33
2023-07-18T02:04:58.720Z,23.24
2023-07-18T02:06:30.515Z,23.21
2023-07-18T02:08:03.327Z,23.23
2023-07-18T02:09:35.271Z,23.29
2023-07-18T02:11:07.095Z,23.30
2023-07-18T02:12:39.470Z,23.35
2023-07-18T02:14:11.126Z,23.37
2023-07-18T02:15:42.770Z,23.34
2023-07-18T02:17:14.738Z,23.33
2023-07-18T02:18:46.740Z,23.32
2023-07-18T02:20:18.870Z,23.30
2023-07-18T02:21:50.671Z,23.30
2023-07-18T02:23:22.233Z,23.30
2023-07-18T02:24:54.181Z,23.31
2023-07-18T02:26:25.828Z,23.27
2023-07-18T02:27:57.440Z,23.25
2023-07-18T02:29:28.950Z,23.21
2023-07-18T02:31:01.690Z,23.20
2023-07-18T02:32:33.534Z,23.20
2023-07-18T02:34:06.159Z,23.15
2023-07-18T02:35:37.886Z,23.12
2023-07-18T02:37:10.035Z,23.17
2023-07-18T02:38:41.673Z,23.18
2023-07-18T02:40:15.070Z,23.20
2023-07-18T02:41:46.633Z,23.22
2023-07-18T02:43:18.921Z,23.23
2023-07-18T02:44:50.829Z,23.18
2023-07-18T02:46:22.730Z,23.19
2023-07-18T02:47:54.948Z,23.15
2023-07-18T02:49:26.614Z,23.18
2023-07-18T02:50:58.207Z,23.18
2023-07-18T02:52:29.881Z,23.20
2023-07-18T02:54:01.481Z,23.19
2023-07-18T02:55:33.192Z,23.22
2023-07-18T02:57:06.227Z,23.18
2023-07-18T02:58:37.978Z,23.17
2023-07-18T03:00:19.083Z,23.18
2023-07-18T03:01:58.553Z,23.18
2023-07-18T03:03:30.759Z,23.16
2023-07-18T03:05:02.654Z,23.14
2023-07-18T03:06:34.414Z,23.15
2023-07-18T03:08:06.157Z,23.13
2023-07-18T03:09:38.570Z,23.13
2023-07-18T03:11:10.418Z,23.11
2023-07-18T03:12:42.669Z,23.09
2023-07-18T03:14:15.860Z,23.06
2023-07-18T03:15:47.878Z,23.05
2023-07-18T03:17:19.550Z,23.07
2023-07-18T03:18:51.324Z,23.07
2023-07-18T03:20:25.569Z,23.09
2023-07-18T03:21:57.230Z,23.10
2023-07-18T03:23:28.946Z,23.06
2023-07-18T03:25:05.287Z,23.06
2023-07-18T03:26:39.764Z,23.08
2023-07-18T03:28:11.463Z,23.09
2023-07-18T03:29:43.570Z,23.09
2023-07-18T03:31:15.275Z,23.09
2023-07-18T03:32:47.824Z,23.07
2023-07-18T03:34:19.775Z,23.11
2023-07-18T03:35:51.633Z,23.13
2023-07-18T03:37:23.612Z,23.12
2023-07-18T03:38:55.275Z,23.12
2023-07-18T03:40:27.105Z,23.10
2023-07-18T03:41:58.756Z,23.08
2023-07-18T03:43:30.285Z,23.05
2023-07-18T03:45:02.068Z,23.04
2023-07-18T03:46:34.281Z,23.01
2023-07-18T03:48:06.053Z,22.99
2023-07-18T03:49:38.027Z,22.99
2023-07-18T03:51:09.718Z,23.02
2023-07-18T03:52:42.142Z,23.07
2023-07-18T03:54:14.086Z,23.11
2023-07-18T03:55:46.443Z,23.16
2023-07-18T03:57:18.274Z,23.21
2023-07-18T03:58:51.401Z,23.28
2023-07-18T04:00:23.370Z,23.32
2023-07-18T04:01:55.604Z,23.36
2023-07-18T04:03:27.320Z,23.42
2023-07-18T04:04:59.045Z,23.49
2023-07-18T04:06:30.650Z,23.57
2023-07-18T04:08:02.536Z,23.65
2023-07-18T04:09:35.078Z,23.67
2023-07-18T04:11:07.271Z,23.72
2023-07-18T04:12:40.674Z,23.83
2023-07-18T04:14:12.255Z,23.92
2023-07-18T04:15:44.186Z,24.01
2023-07-18T04:17:16.068Z,24.09
2023-07-18T04:18:48.648Z,24.19
2023-07-18T04:20:21.136Z,24.24
2023-07-18T04:21:53.329Z,24.30
2023-07-18T04:23:25.831Z,24.35
2023-07-18T04:26:29.097Z,24.42
2023-07-18T04:28:00.855Z,24.49
2023-07-18T04:29:32.780Z,24.53
2023-07-18T04:31:04.553Z,24.58
2023-07-18T04:32:36.722Z,24.63
2023-07-18T04:34:18.085Z,24.67
2023-07-18T04:35:51.618Z,24.69
2023-07-18T04:37:23.740Z,24.73
2023-07-18T04:38:57.168Z,24.79
2023-07-18T04:40:29.359Z,24.81
2023-07-18T04:42:01.396Z,24.83
2023-07-18T04:43:33.066Z,24.87
2023-07-18T04:45:08.163Z,24.91
2023-07-18T04:46:39.973Z,24.98
2023-07-18T04:48:15.132Z,25.02
2023-07-18T04:49:46.809Z,25.10
2023-07-18T04:51:18.957Z,25.16
2023-07-18T04:52:52.602Z,25.24
2023-07-18T04:54:24.201Z,25.27
2023-07-18T04:55:58.736Z,25.38
2023-07-18T04:57:30.699Z,25.50
2023-07-18T04:59:02.328Z,25.65
2023-07-18T05:00:34.232Z,25.75
2023-07-18T05:02:05.960Z,25.80
2023-07-18T05:03:48.239Z,25.85
2023-07-18T05:05:29.822Z,25.97
2023-07-18T05:07:01.574Z,26.00
2023-07-18T05:08:34.030Z,25.99
2023-07-18T05:10:06.278Z,26.03
2023-07-18T05:11:37.842Z,26.08
2023-07-18T05:13:10.719Z,26.15
2023-07-18T05:14:42.519Z,26.16
2023-07-18T05:16:14.158Z,26.20
2023-07-18T05:17:46.105Z,26.16
2023-07-18T05:19:17.775Z,26.02
2023-07-18T05:20:49.431Z,25.99
2023-07-18T05:22:20.993Z,25.99
2023-07-18T05:23:52.653Z,25.98
2023-07-18T05:25:24.262Z,25.95
2023-07-18T05:26:56.257Z,26.01
2023-07-18T05:28:27.813Z,26.19
2023-07-18T05:29:59.625Z,26.37
2023-07-18T05:31:31.555Z,26.56
2023-07-18T05:33:03.747Z,26.64
2023-07-18T05:34:36.861Z,26.74
2023-07-18T05:36:09.522Z,26.85
2023-07-18T05:37:41.567Z,26.95
2023-07-18T05:39:15.185Z,27.06
2023-07-18T05:40:46.868Z,27.09
2023-07-18T05:42:18.541Z,27.16
2023-07-18T05:43:50.210Z,27.33
2023-07-18T05:45:22.035Z,27.41
2023-07-18T05:46:54.498Z,27.41
2023-07-18T05:48:26.257Z,27.36
2023-07-18T05:49:57.969Z,27.35
2023-07-18T05:51:30.003Z,27.32
2023-07-18T05:53:01.780Z,27.31
2023-07-18T05:54:34.901Z,27.37
2023-07-18T05:56:09.056Z,27.50
2023-07-18T05:57:41.071Z,27.68
2023-07-18T05:59:14.400Z,27.90
2023-07-18T06:00:46.046Z,28.13
2023-07-18T06:02:21.481Z,28.32
2023-07-18T06:03:53.104Z,28.44
2023-07-18T06:05:24.743Z,28.56
2023-07-18T06:06:56.411Z,28.68
2023-07-18T06:08:27.998Z,28.75
2023-07-18T06:09:59.592Z,28.59
2023-07-18T06:11:31.261Z,28.53
2023-07-18T06:13:02.855Z,28.67
2023-07-18T06:14:34.644Z,28.77
2023-07-18T06:16:06.390Z,28.84
2023-07-18T06:17:38.131Z,28.97
2023-07-18T06:19:09.790Z,29.13
2023-07-18T06:20:42.152Z,29.17
2023-07-18T06:22:14.638Z,29.25
2023-07-18T06:23:47.712Z,29.28
2023-07-18T06:25:20.132Z,29.34
2023-07-18T06:26:51.682Z,29.50
2023-07-18T06:28:23.720Z,29.61
2023-07-18T06:29:55.884Z,29.73
2023-07-18T06:31:27.814Z,29.83
2023-07-18T06:33:00.466Z,29.90
2023-07-18T06:34:32.656Z,29.99
2023-07-18T06:36:04.868Z,30.13
2023-07-18T06:37:37.070Z,30.28
2023-07-18T06:39:08.746Z,30.38
2023-07-18T06:40:40.719Z,30.55
2023-07-18T06:42:12.684Z,30.54
2023-07-18T06:43:45.044Z,30.62
2023-07-18T06:45:16.654Z,30.77
2023-07-18T06:46:48.545Z,30.88
2023-07-18T06:48:23.438Z,31.05
2023-07-18T06:49:55.172Z,31.18
2023-07-18T06:51:27.488Z,31.13
2023-07-18T06:52:59.098Z,31.23
2023-07-18T06:54:32.023Z,31.30
2023-07-18T06:56:03.967Z,31.35
2023-07-18T06:57:36.494Z,31.48
2023-07-18T06:59:08.451Z,31.51
2023-07-18T07:00:40.386Z,31.68
2023-07-18T07:02:13.417Z,31.84
2023-07-18T07:03:45.318Z,31.93
2023-07-18T07:05:16.955Z,31.84
2023-07-18T07:06:48.943Z,31.91
2023-07-18T07:08:22.411Z,31.93
2023-07-18T07:09:54.197Z,32.00
2023-07-18T07:11:28.992Z,32.00
2023-07-18T07:13:01.422Z,32.07
2023-07-18T07:14:34.634Z,32.13
2023-07-18T07:16:07.072Z,32.14
2023-07-18T07:17:39.487Z,32.27
2023-07-18T07:19:11.323Z,32.38
2023-07-18T07:20:43.610Z,32.52
2023-07-18T07:22:15.974Z,32.64
2023-07-18T07:23:48.260Z,32.79
2023-07-18T07:25:20.623Z,32.93
2023-07-18T07:26:52.838Z,33.02
2023-07-18T07:28:25.268Z,32.84
2023-07-18T07:29:56.944Z,32.62
2023-07-18T07:31:28.583Z,32.53
2023-07-18T07:33:00.321Z,32.70
2023-07-18T07:34:33.700Z,32.89
2023-07-18T07:36:08.220Z,33.06
2023-07-18T07:37:41.955Z,33.17
2023-07-18T07:39:15.070Z,33.07
2023-07-18T07:40:46.999Z,32.94
2023-07-18T07:42:19.240Z,32.85
2023-07-18T07:43:51.286Z,32.94
2023-07-18T07:45:23.845Z,33.01
2023-07-18T07:46:56.409Z,32.87
2023-07-18T07:48:28.092Z,32.71
2023-07-18T07:49:59.747Z,32.76
2023-07-18T07:51:31.478Z,32.96
2023-07-18T07:53:03.016Z,33.19
2023-07-18T07:54:34.670Z,33.46
2023-07-18T07:56:06.416Z,33.77
2023-07-18T07:57:38.302Z,34.03
2023-07-18T07:59:12.114Z,34.14
2023-07-18T08:00:45.631Z,34.24
2023-07-18T08:02:17.972Z,34.33
2023-07-18T08:03:51.168Z,34.44
2023-07-18T08:05:23.414Z,34.59
2023-07-18T08:06:57.442Z,34.69
2023-07-18T08:08:29.570Z,34.58
2023-07-18T08:10:01.669Z,34.63
2023-07-18T08:11:33.216Z,34.79
2023-07-18T08:13:04.910Z,34.99
2023-07-18T08:14:38.735Z,35.10
2023-07-18T08:16:10.621Z,35.15
2023-07-18T08:17:42.736Z,35.21
2023-07-18T08:19:14.614Z,35.27
2023-07-18T08:20:46.970Z,35.36
2023-07-18T08:22:19.814Z,35.32
2023-07-18T08:23:52.395Z,35.28
2023-07-18T08:25:24.967Z,35.41
2023-07-18T08:26:58.810Z,35.54
2023-07-18T08:28:31.487Z,35.58
2023-07-18T08:30:04.258Z,35.70
2023-07-18T08:31:36.593Z,35.79
2023-07-18T08:33:10.213Z,35.86
2023-07-18T08:34:42.924Z,35.98
2023-07-18T08:36:15.105Z,36.07
2023-07-18T08:37:48.566Z,36.19
2023-07-18T08:51:48.249Z,36.33
2023-07-18T08:53:20.216Z,36.48
2023-07-18T08:54:54.611Z,36.65
2023-07-18T08:56:26.955Z,36.73
2023-07-18T08:57:59.183Z,36.82
2023-07-18T08:59:30.971Z,36.93
2023-07-18T09:01:02.741Z,36.86
2023-07-18T09:02:34.511Z,36.93
2023-07-18T09:04:06.804Z,36.86
2023-07-18T09:05:38.805Z,36.69
2023-07-18T09:07:12.172Z,36.52
2023-07-18T09:08:45.252Z,36.43
2023-07-18T09:10:21.844Z,36.46
2023-07-18T09:12:05.601Z,36.54
2023-07-18T09:13:40.856Z,36.55
2023-07-18T09:15:18.807Z,36.55
2023-07-18T09:16:51.258Z,36.61
2023-07-18T09:18:23.076Z,36.64
2023-07-18T09:19:55.842Z,36.64
2023-07-18T09:21:28.771Z,36.62
2023-07-18T09:23:01.753Z,36.62
2023-07-18T09:24:34.154Z,36.75
2023-07-18T09:26:14.281Z,36.81
2023-07-18T09:27:47.048Z,36.94
2023-07-18T09:29:19.589Z,37.02
2023-07-18T09:30:52.391Z,37.13
2023-07-18T09:32:25.207Z,37.25
2023-07-18T09:33:57.590Z,37.30
2023-07-18T09:35:29.752Z,37.33
2023-07-18T09:37:02.854Z,37.34
2023-07-18T09:38:35.882Z,37.36
2023-07-18T09:40:08.672Z,37.36
2023-07-18T09:41:40.939Z,37.44
2023-07-18T09:43:12.910Z,37.52
2023-07-18T09:46:22.890Z,37.18
2023-07-18T09:47:54.851Z,36.93
2023-07-18T09:51:06.106Z,36.58
2023-07-18T09:52:53.019Z,36.55
2023-07-18T09:54:25.484Z,36.61
2023-07-18T09:55:58.154Z,36.77
2023-07-18T09:57:30.358Z,36.95
2023-07-18T09:59:05.952Z,37.17
2023-07-18T10:00:39.473Z,37.21
2023-07-18T10:02:12.485Z,37.31
2023-07-18T10:03:47.118Z,37.43
2023-07-18T10:05:19.313Z,37.53
2023-07-18T10:06:51.992Z,37.52
2023-07-18T10:08:23.953Z,37.57
2023-07-18T10:09:55.967Z,37.68
2023-07-18T10:11:29.072Z,37.76
2023-07-18T10:13:01.501Z,37.75
2023-07-18T10:14:48.849Z,37.80
2023-07-18T10:16:21.692Z,37.82
2023-07-18T10:17:58.740Z,37.85
2023-07-18T10:19:31.014Z,37.96
2023-07-18T10:21:03.195Z,38.04
2023-07-18T10:22:35.911Z,38.07
2023-07-18T10:24:37.614Z,38.14
2023-07-18T10:26:10.672Z,38.19
2023-07-18T10:27:45.158Z,38.17
2023-07-18T10:29:17.761Z,38.21
2023-07-18T10:30:49.810Z,38.31
2023-07-18T10:32:30.388Z,38.34
2023-07-18T10:34:09.495Z,38.30
2023-07-18T10:35:45.158Z,38.10
2023-07-18T10:37:21.082Z,37.94
2023-07-18T10:38:53.661Z,37.86
2023-07-18T10:40:31.866Z,37.84
2023-07-18T10:42:08.010Z,37.81
2023-07-18T10:43:47.972Z,37.79
2023-07-18T10:45:20.040Z,37.88
2023-07-18T10:46:52.305Z,38.00
2023-07-18T10:48:24.267Z,38.10
2023-07-18T10:49:56.041Z,38.24
2023-07-18T10:51:30.742Z,38.38
2023-07-18T10:53:02.703Z,38.45
2023-07-18T10:54:34.821Z,38.55
2023-07-18T10:56:08.043Z,38.61
2023-07-18T10:57:43.324Z,38.70
2023-07-18T10:59:16.302Z,38.73
2023-07-18T11:00:50.285Z,38.80
2023-07-18T11:02:22.655Z,38.89
2023-07-18T11:03:57.056Z,38.96
2023-07-18T11:05:29.584Z,39.04
2023-07-18T11:07:02.560Z,39.12
2023-07-18T11:08:34.670Z,39.18
2023-07-18T11:10:08.361Z,39.08
2023-07-18T11:11:41.228Z,39.05
2023-07-18T11:13:13.672Z,39.06
2023-07-18T11:14:46.991Z,38.99
2023-07-18T11:16:19.936Z,39.05
2023-07-18T11:17:52.476Z,39.08
2023-07-18T11:19:24.773Z,39.04
2023-07-18T11:20:57.706Z,38.96
2023-07-18T11:22:32.769Z,38.93
2023-07-18T11:24:05.324Z,38.97
2023-07-18T11:25:42.966Z,39.02
2023-07-18T11:27:17.221Z,39.04
2023-07-18T11:28:53.142Z,39.08
2023-07-18T11:30:26.822Z,39.02
2023-07-18T11:32:07.642Z,38.97
2023-07-18T11:33:40.306Z,38.95
2023-07-18T11:35:25.569Z,38.99
2023-07-18T11:36:58.794Z,39.06
2023-07-18T11:38:31.373Z,38.95
2023-07-18T11:40:04.327Z,38.73
2023-07-18T11:41:38.078Z,38.59
2023-07-18T11:43:18.688Z,38.57
2023-07-18T11:45:00.224Z,38.60
2023-07-18T11:46:50.888Z,38.67
2023-07-18T11:48:23.866Z,38.61
2023-07-18T11:49:56.729Z,38.60
2023-07-18T11:51:29.540Z,38.53
2023-07-18T11:53:03.399Z,38.34
2023-07-18T11:54:38.622Z,38.30
2023-07-18T11:56:11.586Z,38.33
2023-07-18T11:57:44.139Z,38.34
2023-07-18T11:59:17.548Z,38.41
2023-07-18T12:00:50.620Z,38.59
2023-07-18T12:02:25.559Z,38.58
2023-07-18T12:03:57.895Z,38.58
2023-07-18T12:05:30.213Z,38.61
2023-07-18T12:07:02.144Z,38.59
2023-07-18T12:08:35.019Z,38.57
2023-07-18T12:10:12.395Z,38.55
2023-07-18T12:11:45.747Z,38.49
2023-07-18T12:13:21.313Z,38.45
2023-07-18T12:14:53.552Z,38.34
2023-07-18T12:16:26.409Z,38.15
2023-07-18T12:17:58.887Z,38.02
2023-07-18T12:19:31.325Z,37.91
2023-07-18T12:21:06.287Z,37.82
2023-07-18T12:22:39.318Z,37.78
2023-07-18T12:24:11.828Z,37.86
2023-07-18T12:25:43.812Z,37.97
2023-07-18T12:27:16.604Z,37.98
2023-07-18T12:28:49.039Z,38.14
2023-07-18T12:30:21.898Z,38.18
2023-07-18T12:31:55.304Z,38.26
2023-07-18T12:33:28.640Z,38.29
2023-07-18T12:35:00.774Z,38.30
2023-07-18T12:36:33.558Z,38.28
2023-07-18T12:38:08.209Z,38.31
2023-07-18T12:39:41.101Z,38.39
2023-07-18T12:41:13.805Z,38.38
2023-07-18T12:42:46.308Z,38.48
2023-07-18T12:44:29.707Z,38.44
2023-07-18T12:46:03.168Z,38.54
2023-07-18T12:47:35.892Z,38.60
2023-07-18T12:49:08.277Z,38.73
2023-07-18T12:50:40.143Z,38.85
2023-07-18T12:52:13.361Z,38.88
2023-07-18T12:53:45.252Z,38.90
2023-07-18T12:55:16.953Z,38.86
2023-07-18T12:56:49.125Z,38.84
2023-07-18T12:58:20.872Z,38.86
2023-07-18T12:59:52.827Z,38.77
2023-07-18T13:01:24.702Z,38.77
2023-07-18T13:02:57.252Z,38.72
2023-07-18T13:04:30.692Z,38.62
2023-07-18T13:06:03.003Z,38.61
2023-07-18T13:07:35.372Z,38.61
2023-07-18T13:09:09.530Z,38.66
2023-07-18T13:10:41.967Z,38.63
2023-07-18T13:12:13.801Z,38.62
2023-07-18T13:13:46.046Z,38.63
2023-07-18T13:15:22.006Z,38.58
2023-07-18T13:16:54.575Z,38.60
2023-07-18T13:18:27.122Z,38.65
2023-07-18T13:20:01.033Z,38.64
2023-07-18T13:21:33.506Z,38.61
2023-07-18T13:23:05.558Z,38.58
2023-07-18T13:24:37.692Z,38.57
2023-07-18T13:26:10.154Z,38.56
2023-07-18T13:27:42.576Z,38.47
2023-07-18T13:29:14.733Z,38.42
2023-07-18T13:30:46.744Z,38.44
2023-07-18T13:32:18.715Z,38.50
2023-07-18T13:33:50.476Z,38.56
2023-07-18T13:35:22.870Z,38.52
2023-07-18T13:36:54.582Z,38.59
2023-07-18T13:38:26.899Z,38.63
2023-07-18T13:39:58.593Z,38.63
2023-07-18T13:41:30.413Z,38.58
2023-07-18T13:43:02.154Z,38.48
2023-07-18T13:44:35.273Z,38.49
2023-07-18T13:46:07.376Z,38.60
2023-07-18T13:47:39.285Z,38.65
2023-07-18T13:49:11.184Z,38.65
2023-07-18T13:50:43.355Z,38.56
2023-07-18T13:52:15.942Z,38.51
2023-07-18T13:53:47.588Z,38.50
2023-07-18T13:55:20.171Z,38.47
2023-07-18T13:56:52.207Z,38.49
2023-07-18T13:58:24.255Z,38.54
2023-07-18T13:59:56.099Z,38.53
2023-07-18T14:01:28.045Z,38.55
2023-07-18T14:03:00.297Z,38.49
2023-07-18T14:04:32.653Z,38.45
2023-07-18T14:06:05.408Z,38.42
2023-07-18T14:07:37.968Z,38.48
2023-07-18T14:09:10.324Z,38.51
2023-07-18T14:10:42.571Z,38.45
2023-07-18T14:12:15.254Z,38.38
2023-07-18T14:13:47.639Z,38.33
2023-07-18T14:15:19.480Z,38.39
2023-07-18T14:16:52.092Z,38.37
2023-07-18T14:18:23.705Z,38.28
2023-07-18T14:19:55.383Z,38.29
2023-07-18T14:21:27.327Z,38.27
2023-07-18T14:22:59.297Z,38.19
2023-07-18T14:24:31.117Z,38.15
2023-07-18T14:26:02.956Z,38.06
2023-07-18T14:27:34.826Z,38.02
2023-07-18T14:29:08.729Z,37.98
2023-07-18T14:30:41.263Z,37.97
2023-07-18T14:32:13.303Z,37.83
2023-07-18T14:33:55.680Z,37.77
2023-07-18T14:35:32.533Z,37.77
2023-07-18T14:37:05.332Z,37.80
2023-07-18T14:38:37.130Z,37.88
2023-07-18T14:40:10.061Z,37.87
2023-07-18T14:41:42.479Z,37.82
2023-07-18T14:43:14.264Z,37.76
2023-07-18T14:44:48.381Z,37.67
2023-07-18T14:46:20.686Z,37.60
2023-07-18T14:47:52.612Z,37.62
2023-07-18T14:49:24.605Z,37.70
2023-07-18T14:50:56.421Z,37.72
2023-07-18T14:52:28.629Z,37.77
2023-07-18T14:54:00.773Z,37.75
2023-07-18T14:55:35.146Z,37.77
2023-07-18T14:57:07.523Z,37.77
2023-07-18T14:58:39.547Z,37.77
2023-07-18T15:00:12.006Z,37.73
2023-07-18T15:01:44.035Z,37.71
2023-07-18T15:03:15.994Z,37.73
2023-07-18T15:04:48.787Z,37.70
2023-07-18T15:06:21.103Z,37.58
2023-07-18T15:07:53.544Z,37.49
2023-07-18T15:09:26.110Z,37.45
2023-07-18T15:10:58.196Z,37.41
2023-07-18T15:12:30.460Z,37.36
2023-07-18T15:14:02.388Z,37.38
2023-07-18T15:15:34.110Z,37.37
2023-07-18T15:17:06.655Z,37.33
2023-07-18T15:18:38.539Z,37.27
2023-07-18T15:20:10.592Z,37.20
2023-07-18T15:21:42.591Z,37.24
2023-07-18T15:23:15.071Z,37.21
2023-07-18T15:24:47.376Z,37.19
2023-07-18T15:26:20.065Z,37.20
2023-07-18T15:27:52.411Z,37.23
2023-07-18T15:29:24.266Z,37.17
2023-07-18T15:30:56.306Z,37.11
2023-07-18T15:32:28.268Z,37.06
2023-07-18T15:33:59.963Z,37.03
2023-07-18T15:35:32.914Z,36.96
2023-07-18T15:37:05.020Z,36.94
2023-07-18T15:38:37.065Z,36.83
2023-07-18T15:40:09.212Z,36.79
2023-07-18T15:41:41.362Z,36.75
2023-07-18T15:43:13.330Z,36.70
2023-07-18T15:44:45.438Z,36.57
2023-07-18T15:46:18.989Z,36.50
2023-07-18T15:47:51.478Z,36.42
2023-07-18T15:49:23.461Z,36.40
2023-07-18T15:50:55.496Z,36.40
2023-07-18T15:52:28.943Z,36.36
2023-07-18T15:54:00.902Z,36.34
2023-07-18T15:55:32.629Z,36.26
2023-07-18T15:57:04.942Z,36.13
2023-07-18T15:58:36.993Z,36.09
2023-07-18T16:00:10.258Z,36.07
2023-07-18T16:01:42.748Z,35.98
2023-07-18T16:03:14.651Z,35.98
2023-07-18T16:04:47.231Z,36.00
2023-07-18T16:06:19.827Z,35.94
2023-07-18T16:07:51.950Z,35.91
2023-07-18T16:09:29.648Z,35.87
2023-07-18T16:11:01.548Z,35.82
2023-07-18T16:12:33.351Z,35.77
2023-07-18T16:14:05.069Z,35.74
2023-07-18T16:15:36.882Z,35.75
2023-07-18T16:17:10.597Z,35.71
2023-07-18T16:18:55.717Z,35.69
2023-07-18T16:20:27.379Z,35.70
2023-07-18T16:21:59.144Z,35.65
2023-07-18T16:23:31.260Z,35.63
2023-07-18T16:25:05.971Z,35.50
2023-07-18T16:26:38.770Z,35.40
2023-07-18T16:28:10.907Z,35.32
2023-07-18T16:29:43.017Z,35.25
2023-07-18T16:31:15.053Z,35.19
2023-07-18T16:32:47.463Z,35.09
2023-07-18T16:34:19.630Z,34.98
2023-07-18T16:35:51.906Z,34.94
2023-07-18T16:37:24.403Z,34.88
2023-07-18T16:38:56.454Z,34.83
2023-07-18T16:40:29.715Z,34.78
2023-07-18T16:42:13.660Z,34.76
2023-07-18T16:43:54.899Z,34.74
2023-07-18T16:45:26.995Z,34.75
2023-07-18T16:46:59.332Z,34.80
2023-07-18T16:48:31.550Z,34.80
2023-07-18T16:50:03.565Z,34.72
2023-07-18T16:51:35.758Z,34.63
2023-07-18T16:53:08.959Z,34.59
2023-07-18T16:54:40.943Z,34.55
2023-07-18T16:56:13.105Z,34.51
2023-07-18T16:57:45.348Z,34.51
2023-07-18T16:59:17.461Z,34.48
2023-07-18T17:00:49.371Z,34.44
2023-07-18T17:02:21.153Z,34.35
2023-07-18T17:03:58.484Z,34.32
2023-07-18T17:05:30.470Z,34.26
2023-07-18T17:07:02.699Z,34.19
2023-07-18T17:08:35.226Z,34.11
2023-07-18T17:10:07.902Z,34.05
2023-07-18T17:11:39.655Z,34.00
2023-07-18T17:13:11.663Z,33.95
2023-07-18T17:14:44.621Z,33.93
2023-07-18T17:16:17.336Z,33.88
2023-07-18T17:17:49.701Z,33.85
2023-07-18T17:19:21.973Z,33.82
2023-07-18T17:20:53.840Z,33.77
2023-07-18T17:22:26.225Z,33.75
2023-07-18T17:23:58.575Z,33.70
2023-07-18T17:25:30.576Z,33.63
2023-07-18T17:27:03.717Z,33.61
2023-07-18T17:28:35.524Z,33.57
2023-07-18T17:30:08.985Z,33.50
2023-07-18T17:31:41.347Z,33.46
2023-07-18T17:33:14.085Z,33.42
2023-07-18T17:34:46.302Z,33.38
2023-07-18T17:36:18.758Z,33.32
2023-07-18T17:37:50.817Z,33.31
2023-07-18T17:39:24.602Z,33.30
2023-07-18T17:40:56.939Z,33.27
2023-07-18T17:42:29.215Z,33.17
2023-07-18T17:44:02.688Z,33.13
2023-07-18T17:45:36.490Z,33.07
2023-07-18T17:47:08.413Z,32.94
2023-07-18T17:48:40.626Z,32.91
2023-07-18T17:50:12.729Z,32.85
2023-07-18T17:51:45.028Z,32.78
2023-07-18T17:53:17.091Z,32.66
2023-07-18T17:54:49.011Z,32.58
2023-07-18T17:56:21.177Z,32.57
2023-07-18T17:57:53.178Z,32.55
2023-07-18T17:59:24.932Z,32.50
2023-07-18T18:00:57.770Z,32.44
2023-07-18T18:02:30.005Z,32.40
2023-07-18T18:04:01.943Z,32.32
2023-07-18T18:05:38.533Z,32.32
2023-07-18T18:07:11.792Z,32.29
2023-07-18T18:08:45.611Z,32.16
2023-07-18T18:10:18.220Z,32.03
2023-07-18T18:11:52.625Z,31.92
2023-07-18T18:13:27.864Z,31.81
2023-07-18T18:14:59.932Z,31.65
2023-07-18T18:16:32.487Z,31.52
2023-07-18T18:18:04.964Z,31.40
2023-07-18T18:19:37.257Z,31.29
2023-07-18T18:21:10.363Z,31.20
2023-07-18T18:22:42.131Z,31.16
2023-07-18T18:24:13.964Z,31.15
2023-07-18T18:25:45.683Z,31.08
2023-07-18T18:27:17.624Z,30.99
2023-07-18T18:28:49.309Z,30.89
2023-07-18T18:30:21.070Z,30.81
2023-07-18T18:31:53.884Z,30.66
2023-07-18T18:33:26.146Z,30.48
2023-07-18T18:35:06.984Z,30.33
2023-07-18T18:36:40.310Z,30.24
2023-07-18T18:38:12.487Z,30.20
2023-07-18T18:39:44.700Z,30.23
2023-07-18T18:41:16.828Z,30.29
2023-07-18T18:42:48.967Z,30.25
2023-07-18T18:44:20.842Z,30.20
2023-07-18T18:45:52.865Z,30.16
2023-07-18T18:47:24.605Z,30.14
2023-07-18T18:48:57.707Z,30.16
2023-07-18T18:50:30.579Z,30.14
2023-07-18T18:52:02.317Z,30.11
2023-07-18T18:53:34.346Z,30.07
2023-07-18T18:55:18.987Z,30.05
2023-07-18T18:56:53.616Z,30.03
2023-07-18T18:58:25.283Z,30.05
2023-07-18T18:59:56.989Z,30.02
2023-07-18T19:01:29.852Z,30.02
2023-07-18T19:03:02.131Z,29.97
2023-07-18T19:04:36.709Z,29.94
2023-07-18T19:06:10.380Z,29.95
2023-07-18T19:07:42.206Z,29.95
2023-07-18T19:09:14.107Z,29.89
2023-07-18T19:10:56.231Z,29.83
2023-07-18T19:12:38.365Z,29.76
2023-07-18T19:14:10.339Z,29.68
2023-07-18T19:15:42.429Z,29.68
2023-07-18T19:17:14.279Z,29.65
2023-07-18T19:18:46.131Z,29.62
2023-07-18T19:20:18.709Z,29.58
2023-07-18T19:21:51.476Z,29.54
2023-07-18T19:23:23.720Z,29.53
2023-07-18T19:24:56.008Z,29.56
2023-07-18T19:26:27.960Z,29.56
2023-07-18T19:27:59.990Z,29.55
2023-07-18T19:29:31.837Z,29.54
2023-07-18T19:31:04.529Z,29.56
2023-07-18T19:32:36.473Z,29.56
2023-07-18T19:34:08.801Z,29.52
2023-07-18T19:35:40.693Z,29.55
2023-07-18T19:37:13.378Z,29.57
2023-07-18T19:38:45.267Z,29.59
2023-07-18T19:40:18.305Z,29.53
2023-07-18T19:41:50.350Z,29.50
2023-07-18T19:43:22.484Z,29.48
2023-07-18T19:44:55.419Z,29.52
2023-07-18T19:46:27.346Z,29.51
2023-07-18T19:48:00.117Z,29.50
2023-07-18T19:49:32.212Z,29.48
2023-07-18T19:51:04.757Z,29.43
2023-07-18T19:52:36.908Z,29.46
2023-07-18T19:54:09.072Z,29.45
2023-07-18T19:55:41.150Z,29.45
2023-07-18T19:57:14.071Z,29.45
2023-07-18T19:58:46.220Z,29.48
2023-07-18T20:00:18.584Z,29.47
2023-07-18T20:01:50.805Z,29.47
2023-07-18T20:03:22.959Z,29.43
2023-07-18T20:04:55.348Z,29.35
2023-07-18T20:06:27.500Z,29.30
2023-07-18T20:08:00.310Z,29.23
2023-07-18T20:09:32.709Z,29.14
2023-07-18T20:11:04.670Z,29.00
2023-07-18T20:12:36.819Z,28.86